Airport details for: EIKN (Ireland)

Metar

EIKN 171830Z 36004KT 9999 FEW036 09/08 Q1015 NOSIG

General details

ICAO: EIKN
IATA: NOC
Name (city): Knock
Major:
Country: Ireland
vACC: vACC Ireland
Description:
Scenery links:
FS9 scenery:
FSX/P3D scenery:
XP scenery:
Elevation: 665 ft.
Transition altitude: 5000 ft.
MSA: 7600 ft.
Latitude: 53.910278
Longitude: -8.818611
EIKN Charts
EIKN Notams
EIKN Online stations

Runways

Number Course Length Elevation Lat Lon ILS ILS freq ILS FAC GP
09 85° 7677ft / 2340 m 592ft 53.908534 -8.833461 - - 3.0°
27 265° 7677ft / 2340 m 665ft 53.912314 -8.801328 110.7 265° 3.0°